Terminal Aerodrome Forecast
Issued by NWS

Home | Current Version | Previous Version | Text Only | Print | Product List | Glossary On
Versions: 1 2 3 4 5 6 7 8 9 10 11 12 13 14 15 16 17 18 19 20 21 22 23 24 25 26 27
000
FTUS45 KGJT 030540
TAFEGE
TAF
KEGE 030540Z 0306/0406 23005KT P6SM -SHRA SCT060 OVC090
     FM030900 VRB03KT P6SM VCSH SCT070 BKN110
     FM031800 23006KT P6SM -SHRA VCTS SCT060CB OVC090
      TEMPO 0320/0324 VRB15G25KT -TSRA BKN060CB
     FM040300 12004KT P6SM FEW060 BKN110
      AMD LTD TO CLD VIS AND WIND TIL 031300=

USA.gov is the U.S. government's official web portal to all federal, state and local government web resources and services.